Time;durP1;ratioP1;P1;durP2;ratioP2;P2;SDS_P1;SDS_P2;PMS_P1;PMS_P2;Temp;Humidity;BMP_temperature;BMP_pressure;BME280_temperature;BME280_humidity;BME280_pressure;Samples;Min_cycle;Max_cycle;Signal;HPM_P1;HPM_P2
2023/03/01 00:01:45;;;;;;;12.52;6.43;;;0.70;82.50;;;;;;6134120;23;20009;-86
2023/03/01 00:04:11;;;;;;;12.90;6.15;;;0.70;84.20;;;;;;6132867;23;20056;-86
2023/03/01 00:06:37;;;;;;;14.38;6.82;;;0.70;82.90;;;;;;6133924;23;20020;-86
2023/03/01 00:09:03;;;;;;;11.00;5.97;;;0.70;83.60;;;;;;6133157;23;20051;-86
2023/03/01 00:11:30;;;;;;;12.18;6.43;;;0.70;86.60;;;;;;6157450;23;20020;-87
2023/03/01 00:13:58;;;;;;;12.52;6.30;;;0.60;85.50;;;;;;6133134;23;20052;-86
2023/03/01 00:16:27;;;;;;;13.55;6.47;;;0.60;87.00;;;;;;6132480;23;20017;-86
2023/03/01 00:18:55;;;;;;;11.27;6.20;;;0.60;90.30;;;;;;6158352;23;20048;-86
2023/03/01 00:21:22;;;;;;;11.73;5.90;;;0.60;90.90;;;;;;6150947;23;20032;-87
2023/03/01 00:23:48;;;;;;;10.55;5.60;;;0.60;88.90;;;;;;6141957;23;20017;-87
2023/03/01 00:26:15;;;;;;;12.40;6.22;;;0.50;86.50;;;;;;6134906;23;20036;-86
2023/03/01 00:28:41;;;;;;;10.32;5.50;;;0.50;87.70;;;;;;6166924;23;20495;-86
2023/03/01 00:31:10;;;;;;;12.52;6.57;;;0.40;87.50;;;;;;6159667;23;20024;-86
2023/03/01 00:33:36;;;;;;;13.10;6.43;;;0.50;88.00;;;;;;6133473;23;20017;-87
2023/03/01 00:36:03;;;;;;;13.23;5.60;;;0.40;88.00;;;;;;6133836;23;20330;-87
2023/03/01 00:38:29;;;;;;;11.50;6.10;;;0.40;89.40;;;;;;6133252;23;20456;-87
2023/03/01 00:40:55;;;;;;;14.10;7.10;;;0.40;90.60;;;;;;6157427;23;20016;-87
2023/03/01 00:43:21;;;;;;;11.48;6.05;;;0.30;88.90;;;;;;6132780;23;20013;-86
2023/03/01 00:45:47;;;;;;;10.88;5.78;;;0.30;88.90;;;;;;6132737;23;20055;-86
2023/03/01 00:48:13;;;;;;;13.15;6.22;;;0.30;89.60;;;;;;6132897;23;20048;-86
2023/03/01 00:50:38;;;;;;;16.52;7.65;;;0.30;87.70;;;;;;6157708;23;20009;-87
2023/03/01 00:53:04;;;;;;;14.25;8.25;;;0.20;89.70;;;;;;6132425;23;20063;-87
2023/03/01 00:55:30;;;;;;;14.27;7.70;;;0.30;90.50;;;;;;6158097;23;20079;-86
2023/03/01 00:57:56;;;;;;;14.23;7.53;;;0.30;90.80;;;;;;6157067;23;20123;-86
2023/03/01 01:00:22;;;;;;;13.15;7.18;;;0.20;91.80;;;;;;6132889;23;20015;-87
2023/03/01 01:02:50;;;;;;;15.85;7.22;;;0.20;90.90;;;;;;6133120;23;20068;-87
2023/03/01 01:05:20;;;;;;;16.67;7.55;;;0.20;90.70;;;;;;6157214;23;20015;-87
2023/03/01 01:07:47;;;;;;;15.00;6.50;;;0.10;90.10;;;;;;6156859;23;20028;-87
2023/03/01 01:10:16;;;;;;;14.50;7.30;;;0.10;90.50;;;;;;6157001;23;20084;-87
2023/03/01 01:12:46;;;;;;;12.05;7.13;;;0.10;91.40;;;;;;6130990;23;20016;-87
2023/03/01 01:15:14;;;;;;;14.52;6.97;;;0.00;91.60;;;;;;6132077;23;20005;-86
2023/03/01 01:17:40;;;;;;;12.07;7.15;;;0.00;91.00;;;;;;6157078;23;20017;-87
2023/03/01 01:20:07;;;;;;;12.45;6.43;;;0.00;91.60;;;;;;6132667;23;20602;-87
2023/03/01 01:22:32;;;;;;;14.73;7.43;;;0.00;91.50;;;;;;6156738;23;20322;-87
2023/03/01 01:24:58;;;;;;;14.63;6.05;;;0.00;91.10;;;;;;6132447;23;20393;-87
2023/03/01 01:27:24;;;;;;;11.88;5.53;;;-0.10;92.90;;;;;;6157575;23;20364;-87
2023/03/01 01:29:49;;;;;;;10.95;6.47;;;-0.10;92.70;;;;;;6158089;23;20337;-87
2023/03/01 01:32:15;;;;;;;14.35;6.15;;;-0.10;91.60;;;;;;6157363;23;20083;-86
2023/03/01 01:34:41;;;;;;;11.93;5.93;;;-0.10;92.30;;;;;;6132260;23;20020;-86
2023/03/01 01:37:07;;;;;;;11.98;5.60;;;-0.10;91.60;;;;;;6157452;23;20060;-86
2023/03/01 01:39:36;;;;;;;14.75;7.13;;;-0.10;92.60;;;;;;6133268;23;20348;-86
2023/03/01 01:42:02;;;;;;;14.10;6.28;;;-0.20;91.50;;;;;;6131960;23;20055;-85
2023/03/01 01:44:29;;;;;;;17.52;8.18;;;-0.20;91.90;;;;;;6132528;23;20352;-85
2023/03/01 01:47:14;;;;;;;12.85;6.68;;;-0.20;91.50;;;;;;6157640;23;20075;-85
2023/03/01 01:49:47;;;;;;;17.35;7.57;;;-0.30;93.90;;;;;;6133051;23;20024;-85
2023/03/01 01:52:21;;;;;;;14.32;7.47;;;-0.30;95.20;;;;;;6157683;23;20032;-85
2023/03/01 01:55:03;;;;;;;16.65;7.82;;;-0.30;93.10;;;;;;6156903;23;20461;-86
2023/03/01 01:57:43;;;;;;;20.02;8.65;;;-0.30;92.80;;;;;;6157453;23;20013;-86
2023/03/01 02:00:20;;;;;;;19.40;8.80;;;-0.30;92.80;;;;;;6133190;23;20005;-85
2023/03/01 02:02:51;;;;;;;15.07;7.45;;;-0.30;95.30;;;;;;6157160;23;20016;-86
2023/03/01 02:05:49;;;;;;;13.80;7.25;;;-0.30;95.30;;;;;;6132829;23;20020;-86
2023/03/01 02:08:18;;;;;;;15.80;7.95;;;-0.30;95.40;;;;;;6076595;23;20385;-86
2023/03/01 02:10:45;;;;;;;17.38;7.65;;;-0.30;94.30;;;;;;6183578;23;20460;-86
2023/03/01 02:13:12;;;;;;;14.25;7.78;;;-0.30;95.10;;;;;;6156606;23;20349;-86
2023/03/01 02:15:40;;;;;;;15.10;8.10;;;-0.30;95.00;;;;;;6156705;23;20032;-86
2023/03/01 02:18:07;;;;;;;15.23;7.65;;;-0.30;94.90;;;;;;6132625;23;20009;-86
2023/03/01 02:20:45;;;;;;;15.88;8.20;;;-0.40;94.40;;;;;;6156887;23;20011;-86
2023/03/01 02:23:11;;;;;;;16.48;8.57;;;-0.30;95.50;;;;;;6132310;23;20020;-86
2023/03/01 02:25:46;;;;;;;14.93;8.65;;;-0.30;93.10;;;;;;6156660;23;20013;-86
2023/03/01 02:28:17;;;;;;;14.88;8.38;;;-0.40;95.90;;;;;;6131249;23;20015;-86
2023/03/01 02:33:35;;;;;;;13.23;6.93;;;-0.40;95.20;;;;;;6155501;23;20013;-86
2023/03/01 02:36:04;;;;;;;16.63;6.55;;;-0.50;98.90;;;;;;6131595;23;20480;-86
2023/03/01 02:38:31;;;;;;;17.23;7.18;;;-0.50;93.70;;;;;;6131989;23;20352;-87
2023/03/01 02:40:57;;;;;;;13.75;7.82;;;-0.60;94.00;;;;;;6131815;23;20465;-87
2023/03/01 02:43:27;;;;;;;43.85;9.07;;;-0.70;94.70;;;;;;6132348;23;20009;-86
2023/03/01 02:45:56;;;;;;;44.30;8.60;;;-0.70;97.40;;;;;;6156718;23;20024;-86
2023/03/01 02:48:22;;;;;;;11.43;6.22;;;-0.70;95.70;;;;;;6157322;23;20025;-86
2023/03/01 02:51:03;;;;;;;13.23;6.78;;;-0.70;99.00;;;;;;6183240;23;20032;-86
2023/03/01 02:53:41;;;;;;;11.48;7.03;;;-0.70;97.10;;;;;;6131793;23;20024;-86
2023/03/01 02:56:12;;;;;;;15.73;8.23;;;-0.80;98.00;;;;;;6131249;23;20021;-86
2023/03/01 02:58:44;;;;;;;15.20;8.57;;;-0.80;97.30;;;;;;6132419;23;20036;-86
2023/03/01 03:01:11;;;;;;;14.20;8.80;;;-0.90;95.60;;;;;;6156573;23;20408;-86
2023/03/01 03:03:36;;;;;;;15.07;9.68;;;-0.90;96.00;;;;;;6155928;23;20017;-86
2023/03/01 03:06:02;;;;;;;17.88;10.50;;;-0.90;95.60;;;;;;6132462;23;20013;-86
2023/03/01 03:08:28;;;;;;;13.50;6.85;;;-1.00;96.10;;;;;;6131983;23;20036;-86
2023/03/01 03:10:53;;;;;;;11.00;5.95;;;-1.00;95.00;;;;;;6130988;23;20013;-86
2023/03/01 03:13:19;;;;;;;11.40;6.50;;;-1.10;95.00;;;;;;6182706;23;20016;-86
2023/03/01 03:15:45;;;;;;;10.95;5.57;;;-1.20;94.60;;;;;;6156261;23;20017;-86
2023/03/01 03:18:14;;;;;;;11.82;6.85;;;-1.30;94.90;;;;;;6132117;23;20100;-86
2023/03/01 03:20:42;;;;;;;14.65;6.63;;;-1.30;96.20;;;;;;6182854;23;20092;-86
2023/03/01 03:23:08;;;;;;;10.80;5.50;;;-1.30;96.50;;;;;;6156263;23;20005;-85
2023/03/01 03:25:37;;;;;;;10.23;6.20;;;-1.30;96.90;;;;;;6132419;23;20349;-86
2023/03/01 03:28:09;;;;;;;10.98;6.10;;;-1.30;96.30;;;;;;6156623;23;20441;-85
2023/03/01 03:30:36;;;;;;;14.18;6.38;;;-1.30;96.70;;;;;;6132303;23;20013;-85
2023/03/01 03:33:02;;;;;;;11.10;5.72;;;-1.30;98.00;;;;;;6131363;23;20048;-85
2023/03/01 03:35:34;;;;;;;10.75;5.40;;;-1.20;99.90;;;;;;6131750;23;20330;-85
2023/03/01 03:38:03;;;;;;;11.50;6.80;;;-1.20;99.90;;;;;;6132150;23;20334;-85
2023/03/01 03:40:38;;;;;;;12.82;5.75;;;-1.20;99.90;;;;;;6131897;23;20420;-86
2023/03/01 03:43:07;;;;;;;10.27;5.53;;;-1.20;99.90;;;;;;6131790;23;20013;-86
2023/03/01 03:45:34;;;;;;;9.88;5.25;;;-1.20;98.90;;;;;;6131542;23;20334;-86
2023/03/01 03:48:01;;;;;;;10.57;6.10;;;-1.20;98.60;;;;;;6133995;23;20373;-86
2023/03/01 03:50:27;;;;;;;10.57;5.85;;;-1.20;98.20;;;;;;6158338;23;20012;-86
2023/03/01 03:52:52;;;;;;;11.35;6.75;;;-1.20;99.90;;;;;;6157655;23;20008;-86
2023/03/01 03:55:19;;;;;;;10.52;6.28;;;-1.20;99.90;;;;;;6157655;23;20063;-86
2023/03/01 03:57:53;;;;;;;10.50;6.28;;;-1.20;98.40;;;;;;6132726;23;20013;-86
2023/03/01 04:00:21;;;;;;;13.77;6.25;;;-1.20;99.60;;;;;;6133318;23;20024;-86
2023/03/01 04:02:48;;;;;;;12.05;6.63;;;-1.20;99.90;;;;;;6131331;23;20017;-86
2023/03/01 04:05:17;;;;;;;12.18;6.43;;;-1.20;99.90;;;;;;6132908;23;20009;-86
2023/03/01 04:07:43;;;;;;;12.48;6.68;;;-1.30;99.90;;;;;;6132749;23;20114;-86
2023/03/01 04:10:15;;;;;;;15.73;6.53;;;-1.30;99.40;;;;;;6157014;23;20060;-86
2023/03/01 04:12:43;;;;;;;14.05;7.13;;;-1.40;99.80;;;;;;6157803;23;20021;-86
2023/03/01 04:15:13;;;;;;;12.45;6.95;;;-1.40;99.40;;;;;;6132780;23;20472;-86
2023/03/01 04:17:44;;;;;;;13.50;7.38;;;-1.40;99.90;;;;;;6133656;23;20013;-86
2023/03/01 04:20:12;;;;;;;12.85;7.03;;;-1.40;99.90;;;;;;6132759;23;20020;-86
2023/03/01 04:22:39;;;;;;;11.25;6.20;;;-1.40;99.60;;;;;;6157894;23;20437;-86
2023/03/01 04:25:05;;;;;;;11.85;6.45;;;-1.50;98.30;;;;;;6132860;23;20159;-86
2023/03/01 04:27:33;;;;;;;13.75;7.70;;;-1.60;96.90;;;;;;6157933;23;20019;-86
2023/03/01 04:29:59;;;;;;;12.98;6.85;;;-1.60;97.00;;;;;;6158081;23;20396;-86
2023/03/01 04:32:24;;;;;;;13.88;6.90;;;-1.60;97.00;;;;;;6133461;23;20017;-86
2023/03/01 04:34:50;;;;;;;13.52;7.13;;;-1.70;97.80;;;;;;6133180;23;20092;-86
2023/03/01 04:37:16;;;;;;;14.90;7.85;;;-1.70;98.00;;;;;;6132855;23;20014;-86
2023/03/01 04:39:45;;;;;;;13.18;6.88;;;-1.70;97.50;;;;;;6133072;23;20322;-86
2023/03/01 04:42:14;;;;;;;12.85;7.10;;;-1.70;98.60;;;;;;6157156;23;20080;-86
2023/03/01 04:44:40;;;;;;;14.95;8.23;;;-1.70;99.90;;;;;;6133148;23;20084;-86
2023/03/01 04:47:06;;;;;;;13.55;7.20;;;-1.70;99.90;;;;;;6132959;23;20156;-86
2023/03/01 04:49:32;;;;;;;14.13;8.13;;;-1.70;99.90;;;;;;6133648;23;20024;-87
2023/03/01 04:52:03;;;;;;;15.10;7.40;;;-1.70;99.90;;;;;;6133389;23;20013;-86
2023/03/01 04:54:33;;;;;;;14.07;7.95;;;-1.70;99.40;;;;;;6131947;23;20506;-86
2023/03/01 04:56:59;;;;;;;14.70;8.48;;;-1.70;98.30;;;;;;6133037;23;20056;-86
2023/03/01 04:59:25;;;;;;;17.52;9.52;;;-1.70;99.70;;;;;;6157458;23;20641;-86
2023/03/01 05:01:55;;;;;;;22.52;10.25;;;-1.70;99.90;;;;;;6161971;23;19997;-86
2023/03/01 05:04:24;;;;;;;15.15;9.05;;;-1.70;99.90;;;;;;6142790;23;20021;-86
2023/03/01 05:06:50;;;;;;;16.63;8.90;;;-1.70;99.90;;;;;;6147887;23;20033;-86
2023/03/01 05:09:16;;;;;;;16.45;8.77;;;-1.70;99.90;;;;;;6140753;23;20001;-86
2023/03/01 05:11:42;;;;;;;17.77;8.80;;;-1.70;99.90;;;;;;6138394;23;20439;-86
2023/03/01 05:14:09;;;;;;;20.27;11.13;;;-1.60;99.90;;;;;;6158455;23;20047;-86
2023/03/01 05:16:36;;;;;;;20.73;9.82;;;-1.60;99.90;;;;;;6132655;23;20045;-86
2023/03/01 05:19:11;;;;;;;16.23;8.77;;;-1.70;99.90;;;;;;6133110;23;20028;-86
2023/03/01 05:22:01;;;;;;;16.58;8.95;;;-1.60;99.90;;;;;;6133234;23;20345;-87
2023/03/01 05:24:23;;;;;;;17.95;9.80;;;-1.60;99.90;;;;;;6156847;23;20059;-86
2023/03/01 05:26:51;;;;;;;15.77;8.55;;;-1.70;99.90;;;;;;6132895;23;20017;-86
2023/03/01 05:29:18;;;;;;;17.10;8.65;;;-1.70;99.90;;;;;;6157074;23;20027;-86
2023/03/01 05:31:43;;;;;;;16.17;8.77;;;-1.60;99.90;;;;;;6156278;23;20013;-86
2023/03/01 05:34:09;;;;;;;18.38;10.13;;;-1.70;99.90;;;;;;6131940;23;20471;-86
2023/03/01 05:36:34;;;;;;;16.67;8.43;;;-1.70;99.90;;;;;;6156989;23;20483;-86
2023/03/01 05:39:00;;;;;;;19.02;9.45;;;-1.70;99.90;;;;;;6157378;23;20389;-86
2023/03/01 05:41:26;;;;;;;15.52;9.23;;;-1.70;99.90;;;;;;6156244;23;20040;-86
2023/03/01 05:43:51;;;;;;;14.80;7.75;;;-1.70;99.90;;;;;;6157171;23;20040;-86
2023/03/01 05:46:17;;;;;;;16.00;9.35;;;-1.70;99.90;;;;;;6156719;23;20421;-86
2023/03/01 05:48:43;;;;;;;17.50;9.77;;;-1.70;99.90;;;;;;6157393;23;20013;-86
2023/03/01 05:51:09;;;;;;;17.75;9.82;;;-1.70;99.90;;;;;;6132895;23;20051;-86
2023/03/01 05:53:34;;;;;;;16.27;9.60;;;-1.70;99.90;;;;;;6132163;23;20017;-86
2023/03/01 05:56:03;;;;;;;19.17;9.85;;;-1.80;99.90;;;;;;6132684;23;20013;-86
2023/03/01 05:58:29;;;;;;;13.40;8.15;;;-1.80;99.90;;;;;;6132192;23;20326;-86
2023/03/01 06:00:55;;;;;;;17.17;8.98;;;-1.80;99.90;;;;;;6132315;23;20040;-86
2023/03/01 06:03:20;;;;;;;15.77;8.43;;;-1.70;99.90;;;;;;6156470;23;20013;-86
2023/03/01 06:05:46;;;;;;;19.45;10.07;;;-1.70;99.90;;;;;;6132590;23;20009;-86
2023/03/01 06:08:12;;;;;;;15.32;8.50;;;-1.80;99.90;;;;;;6132552;23;20520;-86
2023/03/01 06:10:38;;;;;;;17.25;9.15;;;-1.70;99.90;;;;;;6131744;23;20091;-86
2023/03/01 06:13:04;;;;;;;17.52;9.25;;;-1.80;99.90;;;;;;6156459;23;20016;-86
2023/03/01 06:15:30;;;;;;;15.32;8.95;;;-1.80;99.90;;;;;;6131978;23;20005;-86
2023/03/01 06:17:59;;;;;;;18.05;9.82;;;-1.80;99.90;;;;;;6155722;23;20900;-87
2023/03/01 06:20:26;;;;;;;16.60;9.80;;;-1.80;99.90;;;;;;6154817;23;20485;-88
2023/03/01 06:22:52;;;;;;;17.67;9.77;;;-1.80;99.90;;;;;;6156045;23;20463;-86
2023/03/01 06:25:23;;;;;;;18.55;10.20;;;-1.80;99.90;;;;;;6156282;23;20052;-86
2023/03/01 06:27:48;;;;;;;18.83;9.95;;;-1.80;99.90;;;;;;6130759;23;20445;-86
2023/03/01 06:30:17;;;;;;;17.13;9.57;;;-1.80;99.90;;;;;;6131477;23;20027;-87
2023/03/01 06:32:43;;;;;;;15.07;8.38;;;-1.80;99.90;;;;;;6131112;23;20017;-86
2023/03/01 06:35:13;;;;;;;20.35;10.23;;;-1.80;99.90;;;;;;6131108;23;20092;-87
2023/03/01 06:37:39;;;;;;;16.30;9.13;;;-1.80;99.90;;;;;;6155708;23;20092;-87
2023/03/01 06:40:11;;;;;;;18.65;9.90;;;-1.80;99.90;;;;;;6155414;23;20059;-87
2023/03/01 06:42:40;;;;;;;17.25;10.07;;;-1.80;99.90;;;;;;6131225;23;20105;-87
2023/03/01 06:45:08;;;;;;;17.42;10.52;;;-1.70;99.90;;;;;;6131346;23;20009;-88
2023/03/01 06:47:33;;;;;;;19.17;10.32;;;-1.80;99.90;;;;;;6131895;23;20009;-87
2023/03/01 06:50:00;;;;;;;20.38;9.65;;;-1.70;99.90;;;;;;6131030;23;20092;-87
2023/03/01 06:52:26;;;;;;;17.58;9.55;;;-1.70;99.90;;;;;;6132076;23;20017;-87
2023/03/01 06:54:51;;;;;;;17.70;9.05;;;-1.70;99.90;;;;;;6130330;23;20024;-86
2023/03/01 06:57:17;;;;;;;15.82;8.93;;;-1.70;99.90;;;;;;6156350;23;20434;-86
2023/03/01 06:59:42;;;;;;;20.58;9.70;;;-1.60;99.90;;;;;;6156392;23;20009;-86
2023/03/01 07:02:12;;;;;;;17.63;9.60;;;-1.60;99.90;;;;;;6154675;23;20063;-86
2023/03/01 07:04:38;;;;;;;20.00;9.52;;;-1.60;99.90;;;;;;6132019;23;20456;-86
2023/03/01 07:07:03;;;;;;;14.30;8.63;;;-1.60;99.90;;;;;;6131467;23;20013;-86
2023/03/01 07:09:29;;;;;;;17.90;8.70;;;-1.60;99.90;;;;;;6132867;23;20582;-87
2023/03/01 07:11:56;;;;;;;15.30;8.65;;;-1.60;99.90;;;;;;6132315;23;20474;-86
2023/03/01 07:14:24;;;;;;;17.83;10.20;;;-1.60;99.90;;;;;;6155552;23;20048;-86
2023/03/01 07:16:50;;;;;;;19.30;10.68;;;-1.60;99.90;;;;;;6132325;23;20017;-86
2023/03/01 07:19:15;;;;;;;20.92;11.35;;;-1.50;99.90;;;;;;6128585;23;20041;-86
2023/03/01 07:21:41;;;;;;;19.33;10.70;;;-1.50;99.90;;;;;;6132643;23;20020;-86
2023/03/01 07:24:07;;;;;;;18.52;11.63;;;-1.50;99.90;;;;;;6157673;23;20399;-86
2023/03/01 07:26:33;;;;;;;16.88;9.90;;;-1.40;99.90;;;;;;6133578;23;20013;-86
2023/03/01 07:29:00;;;;;;;16.70;10.07;;;-1.40;99.90;;;;;;6133210;23;20013;-87
2023/03/01 07:31:27;;;;;;;17.25;10.05;;;-1.40;99.90;;;;;;6133320;23;20457;-86
2023/03/01 07:33:54;;;;;;;17.30;9.68;;;-1.40;99.90;;;;;;6157651;23;20021;-87
2023/03/01 07:36:19;;;;;;;16.85;10.52;;;-1.40;99.90;;;;;;6133299;23;20099;-87
2023/03/01 07:38:45;;;;;;;21.67;11.95;;;-1.30;99.90;;;;;;6132913;23;20040;-86
2023/03/01 07:41:11;;;;;;;19.25;10.55;;;-1.20;99.90;;;;;;6133150;23;20016;-88
2023/03/01 07:43:37;;;;;;;18.85;10.80;;;-1.10;99.90;;;;;;6157289;23;20083;-87
2023/03/01 07:46:03;;;;;;;21.25;11.73;;;-1.10;99.90;;;;;;6157781;23;20047;-87
2023/03/01 07:48:29;;;;;;;18.35;10.57;;;-0.90;99.90;;;;;;6133757;23;20028;-87
2023/03/01 07:50:58;;;;;;;19.10;9.70;;;-0.90;99.90;;;;;;6181884;23;20080;-87
2023/03/01 07:53:24;;;;;;;25.13;12.27;;;-0.80;99.90;;;;;;6156767;23;20017;-87
2023/03/01 07:55:50;;;;;;;20.70;11.05;;;-0.70;99.90;;;;;;6132935;23;20077;-87
2023/03/01 07:58:15;;;;;;;19.10;10.52;;;-0.60;99.90;;;;;;6132839;23;20376;-87
2023/03/01 08:00:41;;;;;;;22.00;11.55;;;-0.40;99.90;;;;;;6158093;23;20017;-87
2023/03/01 08:03:06;;;;;;;20.23;10.55;;;-0.30;99.90;;;;;;6131630;23;20345;-87
2023/03/01 08:05:32;;;;;;;22.00;11.70;;;-0.20;99.90;;;;;;6133442;23;20037;-88
2023/03/01 08:07:58;;;;;;;19.42;11.45;;;-0.20;99.90;;;;;;6157106;23;20020;-87
2023/03/01 08:10:24;;;;;;;24.15;11.60;;;-0.10;99.90;;;;;;6158399;23;20052;-88
2023/03/01 08:12:52;;;;;;;22.55;12.13;;;0.00;99.90;;;;;;6157882;23;20334;-87
2023/03/01 08:15:18;;;;;;;22.98;12.23;;;0.10;99.90;;;;;;6131816;23;20020;-87
2023/03/01 08:17:44;;;;;;;20.00;12.73;;;0.20;99.90;;;;;;6130901;23;20063;-87
2023/03/01 08:20:12;;;;;;;23.27;12.90;;;0.30;99.90;;;;;;6132807;23;20385;-88
2023/03/01 08:22:37;;;;;;;22.42;13.35;;;0.40;99.90;;;;;;6132479;23;20044;-88
2023/03/01 08:25:03;;;;;;;23.75;13.90;;;0.50;99.90;;;;;;6132219;23;20069;-87
2023/03/01 08:27:29;;;;;;;23.73;13.95;;;0.60;99.90;;;;;;6132966;23;20016;-88
2023/03/01 08:29:55;;;;;;;24.00;14.85;;;0.70;99.90;;;;;;6133467;23;20017;-88
2023/03/01 08:32:20;;;;;;;22.15;14.65;;;0.90;99.90;;;;;;6132550;23;20044;-89
2023/03/01 08:34:48;;;;;;;24.90;13.43;;;1.00;99.90;;;;;;6157458;23;20352;-88
2023/03/01 08:37:13;;;;;;;26.48;14.15;;;1.10;99.90;;;;;;6158137;23;20039;-88
2023/03/01 08:39:39;;;;;;;24.05;12.73;;;1.20;99.90;;;;;;6184178;23;20448;-89
2023/03/01 08:42:05;;;;;;;21.52;13.75;;;1.40;99.90;;;;;;6133301;23;20013;-89
2023/03/01 08:44:30;;;;;;;23.67;15.20;;;1.50;99.90;;;;;;6157360;23;20330;-89
2023/03/01 08:46:57;;;;;;;20.30;12.68;;;1.60;99.90;;;;;;6156513;23;20024;-89
2023/03/01 08:49:23;;;;;;;21.98;12.27;;;1.80;99.90;;;;;;6183253;23;20013;-88
2023/03/01 08:51:49;;;;;;;21.75;12.40;;;1.80;99.90;;;;;;6156783;23;20091;-89
2023/03/01 08:54:19;;;;;;;25.63;12.07;;;2.00;99.90;;;;;;6131500;23;20044;-89
2023/03/01 08:56:45;;;;;;;19.02;10.55;;;2.10;99.90;;;;;;6182673;23;20029;-89
2023/03/01 08:59:11;;;;;;;19.17;10.35;;;2.20;99.90;;;;;;6131728;23;20009;-88
2023/03/01 09:01:37;;;;;;;19.77;10.05;;;2.30;99.90;;;;;;6131626;23;20037;-89
2023/03/01 09:04:03;;;;;;;16.48;9.48;;;2.50;99.90;;;;;;6132329;23;20013;-89
2023/03/01 09:06:34;;;;;;;19.77;11.30;;;2.60;99.90;;;;;;6133106;23;20071;-88
2023/03/01 09:09:00;;;;;;;19.05;11.43;;;2.80;99.90;;;;;;6133172;23;20104;-88
2023/03/01 09:11:27;;;;;;;23.35;14.13;;;2.90;99.90;;;;;;6182420;23;20013;-89
2023/03/01 09:13:53;;;;;;;19.38;11.80;;;3.00;99.90;;;;;;6132643;23;20356;-89
2023/03/01 09:16:23;;;;;;;21.77;12.48;;;3.20;99.90;;;;;;6157026;23;20021;-89
2023/03/01 09:18:53;;;;;;;19.15;11.82;;;3.40;99.90;;;;;;6132135;23;20009;-89
2023/03/01 09:21:21;;;;;;;23.63;11.75;;;3.50;99.90;;;;;;6132824;23;20009;-89
2023/03/01 09:23:48;;;;;;;17.85;10.10;;;3.70;99.90;;;;;;6131684;23;20013;-89
2023/03/01 09:26:20;;;;;;;16.52;9.05;;;3.90;99.90;;;;;;6184089;23;20491;-88
2023/03/01 09:28:47;;;;;;;17.15;9.35;;;4.10;99.90;;;;;;6132807;23;20024;-88
2023/03/01 09:31:14;;;;;;;15.68;9.05;;;4.30;99.80;;;;;;6183661;23;20013;-89
2023/03/01 09:33:41;;;;;;;20.40;8.02;;;4.40;98.60;;;;;;6183405;23;20357;-89
2023/03/01 09:36:11;;;;;;;11.15;5.60;;;4.60;97.70;;;;;;6182812;23;20013;-88
2023/03/01 09:38:36;;;;;;;11.93;5.03;;;4.80;95.20;;;;;;6132476;23;20009;-88
2023/03/01 09:41:09;;;;;;;11.05;5.22;;;4.90;93.70;;;;;;6131852;23;20075;-88
2023/03/01 09:43:46;;;;;;;11.00;4.35;;;5.10;92.80;;;;;;6130162;23;20016;-88
2023/03/01 09:46:18;;;;;;;9.77;4.32;;;5.30;91.20;;;;;;6131244;23;20072;-89
2023/03/01 09:49:04;;;;;;;9.73;3.67;;;5.40;89.20;;;;;;6131354;23;20009;-89
2023/03/01 09:51:35;;;;;;;9.55;4.53;;;5.50;88.40;;;;;;6132012;23;20036;-90
2023/03/01 09:54:03;;;;;;;9.38;3.63;;;5.60;87.00;;;;;;6155721;23;20017;-88
2023/03/01 09:56:34;;;;;;;11.95;5.07;;;5.80;86.00;;;;;;6130750;23;20068;-90
2023/03/01 09:58:59;;;;;;;9.73;4.45;;;5.90;84.60;;;;;;6144059;23;20056;-89
2023/03/01 10:01:43;;;;;;;10.20;4.45;;;6.10;83.90;;;;;;6164080;23;20392;-90
2023/03/01 10:04:43;;;;;;;9.18;4.28;;;6.20;82.90;;;;;;6181470;23;20044;-89
2023/03/01 10:07:34;;;;;;;11.43;4.18;;;6.30;81.90;;;;;;6171886;23;20021;-90
2023/03/01 10:10:01;;;;;;;11.77;4.25;;;6.50;81.60;;;;;;6188705;23;20004;-89
2023/03/01 10:12:34;;;;;;;12.02;3.90;;;6.60;81.10;;;;;;6140587;23;20449;-89
2023/03/01 10:15:16;;;;;;;8.93;3.53;;;6.80;80.70;;;;;;6130971;23;20005;-89
2023/03/01 10:17:51;;;;;;;9.55;3.58;;;6.90;79.50;;;;;;6154633;23;20013;-89
2023/03/01 10:20:21;;;;;;;8.48;3.30;;;7.00;78.80;;;;;;6131322;23;20048;-90
2023/03/01 10:22:52;;;;;;;10.82;3.83;;;7.20;78.60;;;;;;6130528;23;20013;-89
2023/03/01 10:25:42;;;;;;;7.70;3.15;;;7.30;78.10;;;;;;6131408;23;20479;-89
2023/03/01 10:28:25;;;;;;;8.35;2.92;;;7.40;77.10;;;;;;6131238;23;20013;-88
2023/03/01 10:30:52;;;;;;;;;;;7.60;76.10;;;;;;6131713;23;20337;-88
2023/03/01 10:33:24;;;;;;;7.43;3.00;;;7.60;73.30;;;;;;6131144;23;19912;-90
2023/03/01 10:35:50;;;;;;;7.82;3.08;;;7.80;75.60;;;;;;6155571;23;20040;-90
2023/03/01 10:38:17;;;;;;;20.50;3.92;;;8.00;75.50;;;;;;6131268;23;20076;-91
2023/03/01 10:41:09;;;;;;;8.27;2.95;;;8.20;75.40;;;;;;6131096;23;20461;-89
2023/03/01 10:43:59;;;;;;;8.40;3.40;;;8.30;73.90;;;;;;6148982;23;20091;-90
2023/03/01 10:46:37;;;;;;;8.20;2.75;;;8.50;74.00;;;;;;6131166;23;20020;-90
2023/03/01 10:49:13;;;;;;;8.60;2.78;;;8.60;73.70;;;;;;6132038;23;20349;-89
2023/03/01 10:51:46;;;;;;;7.65;2.95;;;8.80;72.40;;;;;;6131861;23;20012;-91
2023/03/01 10:54:27;;;;;;;7.97;2.88;;;8.80;71.90;;;;;;6155482;23;20020;-90
2023/03/01 10:56:56;;;;;;;8.02;2.90;;;8.90;70.80;;;;;;6132462;23;20013;-90
2023/03/01 10:59:36;;;;;;;7.63;3.03;;;9.00;71.10;;;;;;6184311;23;20013;-89
2023/03/01 11:02:27;;;;;;;11.85;4.60;;;9.20;70.50;;;;;;6157979;23;20064;-90
2023/03/01 11:05:01;;;;;;;9.27;4.28;;;9.30;69.30;;;;;;6133392;23;20017;-90
2023/03/01 11:07:28;;;;;;;7.55;3.22;;;9.40;69.30;;;;;;6132884;23;20009;-91
2023/03/01 11:09:54;;;;;;;8.68;3.00;;;9.50;69.10;;;;;;6133728;23;20024;-90
2023/03/01 11:12:21;;;;;;;10.68;3.60;;;9.50;68.20;;;;;;6132287;23;20515;-89
2023/03/01 11:14:53;;;;;;;8.23;3.65;;;9.70;67.70;;;;;;6183675;23;20391;-89
2023/03/01 11:17:26;;;;;;;9.90;4.13;;;9.80;67.40;;;;;;6133442;23;20144;-88
2023/03/01 11:20:14;;;;;;;10.48;3.97;;;9.80;66.50;;;;;;6157458;23;20592;-89
2023/03/01 11:22:55;;;;;;;9.93;4.13;;;10.00;66.30;;;;;;6159194;23;20376;-91
2023/03/01 11:25:26;;;;;;;8.68;3.45;;;10.10;66.30;;;;;;6157793;23;20013;-90
2023/03/01 11:27:53;;;;;;;10.23;4.55;;;10.20;66.30;;;;;;6158569;23;20497;-89
2023/03/01 11:30:27;;;;;;;10.63;4.22;;;10.40;66.30;;;;;;6133689;23;20055;-91
2023/03/01 11:33:05;;;;;;;8.95;4.45;;;10.50;65.50;;;;;;6133251;23;20044;-90
2023/03/01 11:35:33;;;;;;;10.63;4.88;;;10.60;64.80;;;;;;6158710;23;20059;-91
2023/03/01 11:38:01;;;;;;;10.23;4.40;;;10.60;64.70;;;;;;6133166;23;20024;-91
2023/03/01 11:40:41;;;;;;;10.88;5.18;;;10.70;64.70;;;;;;6133325;23;20013;-90
2023/03/01 11:43:15;;;;;;;10.35;5.20;;;10.80;64.70;;;;;;6133522;23;20020;-91
2023/03/01 11:45:50;;;;;;;10.10;4.38;;;10.90;63.50;;;;;;6158274;23;20461;-90
2023/03/01 11:48:38;;;;;;;10.50;5.30;;;10.90;63.50;;;;;;6133804;23;20039;-89
2023/03/01 11:51:31;;;;;;;11.38;5.13;;;11.00;63.50;;;;;;6132970;23;20013;-90
2023/03/01 11:54:20;;;;;;;11.35;4.93;;;11.10;63.70;;;;;;6161760;23;20032;-92
2023/03/01 11:56:59;;;;;;;9.02;4.60;;;11.20;63.20;;;;;;6157500;23;20448;-90
2023/03/01 11:59:45;;;;;;;8.98;3.78;;;11.30;62.80;;;;;;6156975;23;20437;-90
2023/03/01 12:02:35;;;;;;;8.63;4.22;;;11.50;62.50;;;;;;6158419;23;20059;-89
2023/03/01 12:05:19;;;;;;;10.35;4.13;;;11.60;62.40;;;;;;6132278;23;20192;-87
2023/03/01 12:08:11;;;;;;;11.70;5.10;;;11.80;62.50;;;;;;6156418;23;20013;-87
2023/03/01 12:10:56;;;;;;;9.77;5.35;;;12.10;62.40;;;;;;6132369;23;20088;-87
2023/03/01 12:14:00;;;;;;;9.85;4.88;;;12.30;61.70;;;;;;6156220;23;20388;-87
2023/03/01 12:16:49;;;;;;;8.63;4.53;;;12.50;60.40;;;;;;6133349;23;20477;-88
2023/03/01 12:19:33;;;;;;;10.60;5.78;;;12.60;61.20;;;;;;6133401;23;20009;-88
2023/03/01 12:22:14;;;;;;;10.18;4.80;;;12.80;61.30;;;;;;6133296;23;20013;-89
2023/03/01 12:25:05;;;;;;;11.25;5.05;;;13.00;60.30;;;;;;6157795;23;20579;-88
2023/03/01 12:28:09;;;;;;;11.38;5.20;;;13.10;58.60;;;;;;6157635;23;20017;-88
2023/03/01 12:31:00;;;;;;;8.98;4.35;;;13.30;59.10;;;;;;6077263;23;20017;-88
2023/03/01 12:33:42;;;;;;;9.43;4.30;;;13.60;59.00;;;;;;6132527;23;20013;-89
2023/03/01 12:36:26;;;;;;;10.50;5.03;;;13.80;58.60;;;;;;6132344;23;20021;-88
2023/03/01 12:39:29;;;;;;;8.50;4.43;;;13.70;58.00;;;;;;6132602;23;20036;-88
2023/03/01 12:42:23;;;;;;;11.05;4.50;;;13.90;57.10;;;;;;6156179;23;20020;-89
2023/03/01 12:45:20;;;;;;;9.25;4.80;;;14.20;57.60;;;;;;6157000;23;20080;-90
2023/03/01 12:47:52;;;;;;;10.32;6.20;;;14.40;57.40;;;;;;6157726;23;20121;-89
2023/03/01 12:50:28;;;;;;;11.43;6.30;;;14.60;56.80;;;;;;6133468;23;20330;-89
2023/03/01 12:52:56;;;;;;;9.18;4.78;;;14.90;55.10;;;;;;6133030;23;20016;-89
2023/03/01 12:55:39;;;;;;;9.85;4.95;;;14.90;54.80;;;;;;6132364;23;20064;-91
2023/03/01 12:58:24;;;;;;;9.75;4.53;;;14.90;53.90;;;;;;6157928;23;20503;-89
2023/03/01 13:01:15;;;;;;;9.38;5.20;;;14.90;54.20;;;;;;6157136;23;20015;-90